sensor_id;sensor_type;location;lat;lon;timestamp;temperature;humidity
13817;DHT22;6979;52.116;5.286;2023-07-09T00:00:55;28.10;91.00
13817;DHT22;6979;52.116;5.286;2023-07-09T00:03:22;28.10;91.10
13817;DHT22;6979;52.116;5.286;2023-07-09T00:05:50;28.10;91.20
13817;DHT22;6979;52.116;5.286;2023-07-09T00:08:25;28.00;91.10
13817;DHT22;6979;52.116;5.286;2023-07-09T00:10:54;28.00;91.40
13817;DHT22;6979;52.116;5.286;2023-07-09T00:13:22;27.90;91.40
13817;DHT22;6979;52.116;5.286;2023-07-09T00:15:49;27.90;91.30
13817;DHT22;6979;52.116;5.286;2023-07-09T00:18:16;27.80;91.50
13817;DHT22;6979;52.116;5.286;2023-07-09T00:20:43;27.80;91.40
13817;DHT22;6979;52.116;5.286;2023-07-09T00:23:13;27.70;91.30
13817;DHT22;6979;52.116;5.286;2023-07-09T00:25:42;27.70;91.30
13817;DHT22;6979;52.116;5.286;2023-07-09T00:28:13;27.70;91.30
13817;DHT22;6979;52.116;5.286;2023-07-09T00:30:41;27.70;91.60
13817;DHT22;6979;52.116;5.286;2023-07-09T00:33:11;27.60;91.50
13817;DHT22;6979;52.116;5.286;2023-07-09T00:35:40;27.60;91.60
13817;DHT22;6979;52.116;5.286;2023-07-09T00:38:13;27.60;91.60
13817;DHT22;6979;52.116;5.286;2023-07-09T00:40:46;27.50;91.70
13817;DHT22;6979;52.116;5.286;2023-07-09T00:43:16;27.50;91.60
13817;DHT22;6979;52.116;5.286;2023-07-09T00:45:43;27.40;92.00
13817;DHT22;6979;52.116;5.286;2023-07-09T00:48:14;27.40;91.60
13817;DHT22;6979;52.116;5.286;2023-07-09T00:50:46;27.40;91.60
13817;DHT22;6979;52.116;5.286;2023-07-09T00:53:21;27.40;91.60
13817;DHT22;6979;52.116;5.286;2023-07-09T00:55:52;27.40;91.50
13817;DHT22;6979;52.116;5.286;2023-07-09T00:58:24;27.40;91.80
13817;DHT22;6979;52.116;5.286;2023-07-09T01:00:56;27.30;91.90
13817;DHT22;6979;52.116;5.286;2023-07-09T01:03:33;27.30;91.80
13817;DHT22;6979;52.116;5.286;2023-07-09T01:06:01;27.30;91.80
13817;DHT22;6979;52.116;5.286;2023-07-09T01:08:31;27.30;91.90
13817;DHT22;6979;52.116;5.286;2023-07-09T01:10:59;27.20;91.80
13817;DHT22;6979;52.116;5.286;2023-07-09T01:13:28;27.20;92.00
13817;DHT22;6979;52.116;5.286;2023-07-09T01:15:58;27.20;92.10
13817;DHT22;6979;52.116;5.286;2023-07-09T01:18:25;27.20;92.10
13817;DHT22;6979;52.116;5.286;2023-07-09T01:21:01;27.20;92.20
13817;DHT22;6979;52.116;5.286;2023-07-09T01:23:28;27.10;92.40
13817;DHT22;6979;52.116;5.286;2023-07-09T01:25:56;27.10;92.20
13817;DHT22;6979;52.116;5.286;2023-07-09T01:28:23;27.10;92.40
13817;DHT22;6979;52.116;5.286;2023-07-09T01:30:50;27.10;92.40
13817;DHT22;6979;52.116;5.286;2023-07-09T01:33:20;27.10;92.50
13817;DHT22;6979;52.116;5.286;2023-07-09T01:35:48;27.00;92.40
13817;DHT22;6979;52.116;5.286;2023-07-09T01:38:17;27.00;92.50
13817;DHT22;6979;52.116;5.286;2023-07-09T01:40:46;26.90;92.50
13817;DHT22;6979;52.116;5.286;2023-07-09T01:43:14;26.90;92.50
13817;DHT22;6979;52.116;5.286;2023-07-09T01:45:41;26.80;92.70
13817;DHT22;6979;52.116;5.286;2023-07-09T01:48:08;26.80;92.70
13817;DHT22;6979;52.116;5.286;2023-07-09T01:50:42;26.70;92.80
13817;DHT22;6979;52.116;5.286;2023-07-09T01:53:10;26.70;92.90
13817;DHT22;6979;52.116;5.286;2023-07-09T01:55:42;26.60;93.00
13817;DHT22;6979;52.116;5.286;2023-07-09T01:58:09;26.50;93.00
13817;DHT22;6979;52.116;5.286;2023-07-09T02:00:37;26.50;93.10
13817;DHT22;6979;52.116;5.286;2023-07-09T02:03:06;26.50;93.10
13817;DHT22;6979;52.116;5.286;2023-07-09T02:05:35;26.40;93.10
13817;DHT22;6979;52.116;5.286;2023-07-09T02:08:03;26.40;93.20
13817;DHT22;6979;52.116;5.286;2023-07-09T02:10:30;26.30;93.20
13817;DHT22;6979;52.116;5.286;2023-07-09T02:13:00;26.30;93.30
13817;DHT22;6979;52.116;5.286;2023-07-09T02:15:27;26.20;93.40
13817;DHT22;6979;52.116;5.286;2023-07-09T02:17:56;26.20;93.30
13817;DHT22;6979;52.116;5.286;2023-07-09T02:20:24;26.10;93.40
13817;DHT22;6979;52.116;5.286;2023-07-09T02:22:52;26.10;93.50
13817;DHT22;6979;52.116;5.286;2023-07-09T02:25:19;26.10;93.60
13817;DHT22;6979;52.116;5.286;2023-07-09T02:27:46;26.00;93.60
13817;DHT22;6979;52.116;5.286;2023-07-09T02:30:20;26.00;93.70
13817;DHT22;6979;52.116;5.286;2023-07-09T02:32:49;26.00;93.70
13817;DHT22;6979;52.116;5.286;2023-07-09T02:35:19;26.00;93.80
13817;DHT22;6979;52.116;5.286;2023-07-09T02:37:46;26.00;93.80
13817;DHT22;6979;52.116;5.286;2023-07-09T02:40:14;26.00;93.70
13817;DHT22;6979;52.116;5.286;2023-07-09T02:42:41;26.00;93.60
13817;DHT22;6979;52.116;5.286;2023-07-09T02:45:09;26.00;93.70
13817;DHT22;6979;52.116;5.286;2023-07-09T02:47:38;26.00;93.80
13817;DHT22;6979;52.116;5.286;2023-07-09T02:50:07;26.00;93.90
13817;DHT22;6979;52.116;5.286;2023-07-09T02:52:34;26.00;93.80
13817;DHT22;6979;52.116;5.286;2023-07-09T02:55:01;25.90;93.80
13817;DHT22;6979;52.116;5.286;2023-07-09T02:57:28;25.90;93.80
13817;DHT22;6979;52.116;5.286;2023-07-09T02:59:55;25.90;93.90
13817;DHT22;6979;52.116;5.286;2023-07-09T03:02:22;25.90;94.00
13817;DHT22;6979;52.116;5.286;2023-07-09T03:04:51;25.90;94.10
13817;DHT22;6979;52.116;5.286;2023-07-09T03:07:18;25.90;94.20
13817;DHT22;6979;52.116;5.286;2023-07-09T03:09:47;25.90;94.10
13817;DHT22;6979;52.116;5.286;2023-07-09T03:12:14;25.90;94.10
13817;DHT22;6979;52.116;5.286;2023-07-09T03:14:41;25.80;94.10
13817;DHT22;6979;52.116;5.286;2023-07-09T03:17:08;25.80;94.20
13817;DHT22;6979;52.116;5.286;2023-07-09T03:19:35;25.80;94.40
13817;DHT22;6979;52.116;5.286;2023-07-09T03:22:03;25.80;94.30
13817;DHT22;6979;52.116;5.286;2023-07-09T03:24:30;25.80;94.30
13817;DHT22;6979;52.116;5.286;2023-07-09T03:26:57;25.70;94.50
13817;DHT22;6979;52.116;5.286;2023-07-09T03:29:26;25.70;94.50
13817;DHT22;6979;52.116;5.286;2023-07-09T03:31:54;25.70;94.50
13817;DHT22;6979;52.116;5.286;2023-07-09T03:34:21;25.70;94.60
13817;DHT22;6979;52.116;5.286;2023-07-09T03:36:48;25.70;94.70
13817;DHT22;6979;52.116;5.286;2023-07-09T03:39:16;25.70;95.20
13817;DHT22;6979;52.116;5.286;2023-07-09T03:41:43;25.70;95.30
13817;DHT22;6979;52.116;5.286;2023-07-09T03:44:10;25.70;94.90
13817;DHT22;6979;52.116;5.286;2023-07-09T03:46:38;25.60;94.80
13817;DHT22;6979;52.116;5.286;2023-07-09T03:49:08;25.60;94.90
13817;DHT22;6979;52.116;5.286;2023-07-09T03:51:40;25.50;95.00
13817;DHT22;6979;52.116;5.286;2023-07-09T03:54:07;25.50;95.10
13817;DHT22;6979;52.116;5.286;2023-07-09T03:56:37;25.50;95.10
13817;DHT22;6979;52.116;5.286;2023-07-09T03:59:04;25.40;95.20
13817;DHT22;6979;52.116;5.286;2023-07-09T04:01:31;25.40;95.30
13817;DHT22;6979;52.116;5.286;2023-07-09T04:04:01;25.40;95.50
13817;DHT22;6979;52.116;5.286;2023-07-09T04:06:28;25.40;95.50
13817;DHT22;6979;52.116;5.286;2023-07-09T04:08:57;25.40;95.40
13817;DHT22;6979;52.116;5.286;2023-07-09T04:11:24;25.40;95.50
13817;DHT22;6979;52.116;5.286;2023-07-09T04:13:52;25.40;95.40
13817;DHT22;6979;52.116;5.286;2023-07-09T04:16:19;25.40;95.80
13817;DHT22;6979;52.116;5.286;2023-07-09T04:18:46;25.40;95.80
13817;DHT22;6979;52.116;5.286;2023-07-09T04:21:13;25.40;95.70
13817;DHT22;6979;52.116;5.286;2023-07-09T04:23:40;25.40;95.70
13817;DHT22;6979;52.116;5.286;2023-07-09T04:26:08;25.40;95.70
13817;DHT22;6979;52.116;5.286;2023-07-09T04:28:42;25.50;95.70
13817;DHT22;6979;52.116;5.286;2023-07-09T04:31:12;25.50;95.70
13817;DHT22;6979;52.116;5.286;2023-07-09T04:33:39;25.50;95.80
13817;DHT22;6979;52.116;5.286;2023-07-09T04:36:06;25.50;95.80
13817;DHT22;6979;52.116;5.286;2023-07-09T04:38:34;25.60;95.80
13817;DHT22;6979;52.116;5.286;2023-07-09T04:41:01;25.60;95.80
13817;DHT22;6979;52.116;5.286;2023-07-09T04:43:28;25.60;95.90
13817;DHT22;6979;52.116;5.286;2023-07-09T04:45:55;25.70;96.00
13817;DHT22;6979;52.116;5.286;2023-07-09T04:48:24;25.70;96.00
13817;DHT22;6979;52.116;5.286;2023-07-09T04:50:51;25.70;96.20
13817;DHT22;6979;52.116;5.286;2023-07-09T04:53:24;25.80;96.40
13817;DHT22;6979;52.116;5.286;2023-07-09T04:55:51;25.80;96.60
13817;DHT22;6979;52.116;5.286;2023-07-09T04:58:18;25.90;96.50
13817;DHT22;6979;52.116;5.286;2023-07-09T05:00:45;25.90;96.80
13817;DHT22;6979;52.116;5.286;2023-07-09T05:03:13;25.90;96.60
13817;DHT22;6979;52.116;5.286;2023-07-09T05:05:44;25.90;96.60
13817;DHT22;6979;52.116;5.286;2023-07-09T05:08:12;26.00;97.00
13817;DHT22;6979;52.116;5.286;2023-07-09T05:10:41;26.00;97.00
13817;DHT22;6979;52.116;5.286;2023-07-09T05:13:08;26.10;96.90
13817;DHT22;6979;52.116;5.286;2023-07-09T05:15:35;26.10;96.90
13817;DHT22;6979;52.116;5.286;2023-07-09T05:18:02;26.10;97.00
13817;DHT22;6979;52.116;5.286;2023-07-09T05:20:29;26.20;97.00
13817;DHT22;6979;52.116;5.286;2023-07-09T05:23:00;26.20;97.00
13817;DHT22;6979;52.116;5.286;2023-07-09T05:25:27;26.30;97.10
13817;DHT22;6979;52.116;5.286;2023-07-09T05:27:54;26.30;97.40
13817;DHT22;6979;52.116;5.286;2023-07-09T05:30:21;26.40;97.40
13817;DHT22;6979;52.116;5.286;2023-07-09T05:32:51;26.50;97.60
13817;DHT22;6979;52.116;5.286;2023-07-09T05:35:19;26.50;97.80
13817;DHT22;6979;52.116;5.286;2023-07-09T05:37:46;26.60;98.10
13817;DHT22;6979;52.116;5.286;2023-07-09T05:40:14;26.70;98.20
13817;DHT22;6979;52.116;5.286;2023-07-09T05:42:41;26.70;98.40
13817;DHT22;6979;52.116;5.286;2023-07-09T05:45:10;26.70;98.40
13817;DHT22;6979;52.116;5.286;2023-07-09T05:47:38;26.80;98.50
13817;DHT22;6979;52.116;5.286;2023-07-09T05:50:05;26.80;98.60
13817;DHT22;6979;52.116;5.286;2023-07-09T05:52:32;26.90;98.60
13817;DHT22;6979;52.116;5.286;2023-07-09T05:54:59;27.00;98.70
13817;DHT22;6979;52.116;5.286;2023-07-09T05:57:28;27.10;98.80
13817;DHT22;6979;52.116;5.286;2023-07-09T05:59:55;27.20;98.90
13817;DHT22;6979;52.116;5.286;2023-07-09T06:02:22;27.30;99.00
13817;DHT22;6979;52.116;5.286;2023-07-09T06:04:49;27.40;99.10
13817;DHT22;6979;52.116;5.286;2023-07-09T06:07:16;27.50;99.10
13817;DHT22;6979;52.116;5.286;2023-07-09T06:09:44;27.60;99.10
13817;DHT22;6979;52.116;5.286;2023-07-09T06:12:12;27.70;99.10
13817;DHT22;6979;52.116;5.286;2023-07-09T06:14:40;27.80;99.00
13817;DHT22;6979;52.116;5.286;2023-07-09T06:17:07;27.90;98.90
13817;DHT22;6979;52.116;5.286;2023-07-09T06:19:34;28.00;98.80
13817;DHT22;6979;52.116;5.286;2023-07-09T06:22:01;28.10;98.70
13817;DHT22;6979;52.116;5.286;2023-07-09T06:24:28;28.20;98.60
13817;DHT22;6979;52.116;5.286;2023-07-09T06:26:55;28.30;98.60
13817;DHT22;6979;52.116;5.286;2023-07-09T06:29:22;28.40;98.50
13817;DHT22;6979;52.116;5.286;2023-07-09T06:31:51;28.50;98.30
13817;DHT22;6979;52.116;5.286;2023-07-09T06:34:18;28.60;98.30
13817;DHT22;6979;52.116;5.286;2023-07-09T06:36:44;28.70;98.30
13817;DHT22;6979;52.116;5.286;2023-07-09T06:39:11;28.80;98.20
13817;DHT22;6979;52.116;5.286;2023-07-09T06:41:38;28.90;98.10
13817;DHT22;6979;52.116;5.286;2023-07-09T06:44:07;29.00;98.00
13817;DHT22;6979;52.116;5.286;2023-07-09T06:46:35;29.20;98.00
13817;DHT22;6979;52.116;5.286;2023-07-09T06:49:03;29.30;97.70
13817;DHT22;6979;52.116;5.286;2023-07-09T06:51:31;29.40;97.60
13817;DHT22;6979;52.116;5.286;2023-07-09T06:53:58;29.50;97.50
13817;DHT22;6979;52.116;5.286;2023-07-09T06:56:25;29.60;97.30
13817;DHT22;6979;52.116;5.286;2023-07-09T06:58:52;29.70;97.30
13817;DHT22;6979;52.116;5.286;2023-07-09T07:01:19;29.80;97.30
13817;DHT22;6979;52.116;5.286;2023-07-09T07:03:45;29.90;96.90
13817;DHT22;6979;52.116;5.286;2023-07-09T07:06:14;30.00;96.80
13817;DHT22;6979;52.116;5.286;2023-07-09T07:08:41;30.00;96.40
13817;DHT22;6979;52.116;5.286;2023-07-09T07:11:08;30.10;96.20
13817;DHT22;6979;52.116;5.286;2023-07-09T07:13:36;30.30;96.20
13817;DHT22;6979;52.116;5.286;2023-07-09T07:16:05;30.40;96.30
13817;DHT22;6979;52.116;5.286;2023-07-09T07:18:33;30.50;96.20
13817;DHT22;6979;52.116;5.286;2023-07-09T07:21:00;30.60;95.90
13817;DHT22;6979;52.116;5.286;2023-07-09T07:23:28;30.70;95.50
13817;DHT22;6979;52.116;5.286;2023-07-09T07:25:55;30.90;95.10
13817;DHT22;6979;52.116;5.286;2023-07-09T07:28:22;31.00;95.10
13817;DHT22;6979;52.116;5.286;2023-07-09T07:30:58;31.10;94.90
13817;DHT22;6979;52.116;5.286;2023-07-09T07:33:25;31.20;94.30
13817;DHT22;6979;52.116;5.286;2023-07-09T07:35:52;31.30;94.30
13817;DHT22;6979;52.116;5.286;2023-07-09T07:38:19;31.40;94.10
13817;DHT22;6979;52.116;5.286;2023-07-09T07:40:47;31.50;94.20
13817;DHT22;6979;52.116;5.286;2023-07-09T07:43:14;31.60;93.90
13817;DHT22;6979;52.116;5.286;2023-07-09T07:45:41;31.70;93.60
13817;DHT22;6979;52.116;5.286;2023-07-09T07:48:08;31.70;93.60
13817;DHT22;6979;52.116;5.286;2023-07-09T07:50:35;31.90;93.30
13817;DHT22;6979;52.116;5.286;2023-07-09T07:53:04;32.00;93.20
13817;DHT22;6979;52.116;5.286;2023-07-09T07:55:30;32.00;93.20
13817;DHT22;6979;52.116;5.286;2023-07-09T07:57:59;32.20;92.70
13817;DHT22;6979;52.116;5.286;2023-07-09T08:00:28;32.30;92.50
13817;DHT22;6979;52.116;5.286;2023-07-09T08:02:55;32.30;92.30
13817;DHT22;6979;52.116;5.286;2023-07-09T08:05:22;32.50;92.20
13817;DHT22;6979;52.116;5.286;2023-07-09T08:07:49;32.60;92.00
13817;DHT22;6979;52.116;5.286;2023-07-09T08:10:16;32.70;91.70
13817;DHT22;6979;52.116;5.286;2023-07-09T08:12:43;32.80;91.30
13817;DHT22;6979;52.116;5.286;2023-07-09T08:15:12;32.90;91.20
13817;DHT22;6979;52.116;5.286;2023-07-09T08:17:39;33.00;90.90
13817;DHT22;6979;52.116;5.286;2023-07-09T08:20:07;33.10;90.90
13817;DHT22;6979;52.116;5.286;2023-07-09T08:22:34;33.10;90.80
13817;DHT22;6979;52.116;5.286;2023-07-09T08:25:01;33.30;90.80
13817;DHT22;6979;52.116;5.286;2023-07-09T08:27:28;33.40;91.20
13817;DHT22;6979;52.116;5.286;2023-07-09T08:29:55;33.40;91.50
13817;DHT22;6979;52.116;5.286;2023-07-09T08:32:23;33.60;91.70
13817;DHT22;6979;52.116;5.286;2023-07-09T08:34:50;33.70;92.30
13817;DHT22;6979;52.116;5.286;2023-07-09T08:37:17;33.80;92.00
13817;DHT22;6979;52.116;5.286;2023-07-09T08:39:44;33.90;92.00
13817;DHT22;6979;52.116;5.286;2023-07-09T08:42:15;34.00;91.90
13817;DHT22;6979;52.116;5.286;2023-07-09T08:45:00;34.10;91.80
13817;DHT22;6979;52.116;5.286;2023-07-09T08:47:36;34.20;91.90
13817;DHT22;6979;52.116;5.286;2023-07-09T08:50:08;34.30;92.00
13817;DHT22;6979;52.116;5.286;2023-07-09T08:52:38;34.40;91.90
13817;DHT22;6979;52.116;5.286;2023-07-09T08:55:08;34.50;91.90
13817;DHT22;6979;52.116;5.286;2023-07-09T08:57:39;34.70;91.90
13817;DHT22;6979;52.116;5.286;2023-07-09T09:00:14;34.80;91.80
13817;DHT22;6979;52.116;5.286;2023-07-09T09:02:49;35.00;91.80
13817;DHT22;6979;52.116;5.286;2023-07-09T09:05:19;35.40;91.70
13817;DHT22;6979;52.116;5.286;2023-07-09T09:07:51;35.60;91.30
13817;DHT22;6979;52.116;5.286;2023-07-09T09:10:24;36.00;90.70
13817;DHT22;6979;52.116;5.286;2023-07-09T09:13:08;36.40;90.40
13817;DHT22;6979;52.116;5.286;2023-07-09T09:15:38;36.80;89.40
13817;DHT22;6979;52.116;5.286;2023-07-09T09:18:20;37.20;89.20
13817;DHT22;6979;52.116;5.286;2023-07-09T09:20:51;37.50;87.40
13817;DHT22;6979;52.116;5.286;2023-07-09T09:23:20;37.60;86.80
13817;DHT22;6979;52.116;5.286;2023-07-09T09:25:50;37.80;87.10
13817;DHT22;6979;52.116;5.286;2023-07-09T09:28:18;38.00;86.30
13817;DHT22;6979;52.116;5.286;2023-07-09T09:30:45;38.00;85.80
13817;DHT22;6979;52.116;5.286;2023-07-09T09:33:12;38.10;85.60
13817;DHT22;6979;52.116;5.286;2023-07-09T09:35:42;38.10;85.20
13817;DHT22;6979;52.116;5.286;2023-07-09T09:38:11;38.20;84.80
13817;DHT22;6979;52.116;5.286;2023-07-09T09:40:39;38.40;84.70
13817;DHT22;6979;52.116;5.286;2023-07-09T09:43:12;38.60;84.30
13817;DHT22;6979;52.116;5.286;2023-07-09T09:45:41;38.90;83.70
13817;DHT22;6979;52.116;5.286;2023-07-09T09:48:20;39.20;83.40
13817;DHT22;6979;52.116;5.286;2023-07-09T09:50:55;39.50;83.10
13817;DHT22;6979;52.116;5.286;2023-07-09T09:53:28;39.80;82.60
13817;DHT22;6979;52.116;5.286;2023-07-09T09:55:56;40.10;81.90
13817;DHT22;6979;52.116;5.286;2023-07-09T09:58:27;40.40;80.90
13817;DHT22;6979;52.116;5.286;2023-07-09T10:00:56;40.60;80.40
13817;DHT22;6979;52.116;5.286;2023-07-09T10:03:32;40.70;80.00
13817;DHT22;6979;52.116;5.286;2023-07-09T10:06:05;40.90;79.70
13817;DHT22;6979;52.116;5.286;2023-07-09T10:08:41;41.20;79.20
13817;DHT22;6979;52.116;5.286;2023-07-09T10:11:20;41.40;78.90
13817;DHT22;6979;52.116;5.286;2023-07-09T10:13:51;41.60;78.20
13817;DHT22;6979;52.116;5.286;2023-07-09T10:16:23;41.80;77.50
13817;DHT22;6979;52.116;5.286;2023-07-09T10:18:55;41.90;77.30
13817;DHT22;6979;52.116;5.286;2023-07-09T10:21:34;42.00;76.80
13817;DHT22;6979;52.116;5.286;2023-07-09T10:24:13;42.10;76.40
13817;DHT22;6979;52.116;5.286;2023-07-09T10:26:47;42.20;76.40
13817;DHT22;6979;52.116;5.286;2023-07-09T10:29:33;42.30;76.10
13817;DHT22;6979;52.116;5.286;2023-07-09T10:32:18;42.30;76.10
13817;DHT22;6979;52.116;5.286;2023-07-09T10:34:53;42.40;75.90
13817;DHT22;6979;52.116;5.286;2023-07-09T10:37:35;42.40;75.70
13817;DHT22;6979;52.116;5.286;2023-07-09T10:40:10;42.40;75.30
13817;DHT22;6979;52.116;5.286;2023-07-09T10:42:41;42.40;75.10
13817;DHT22;6979;52.116;5.286;2023-07-09T10:45:11;42.30;74.80
13817;DHT22;6979;52.116;5.286;2023-07-09T10:47:41;42.20;74.90
13817;DHT22;6979;52.116;5.286;2023-07-09T10:50:14;42.00;74.80
13817;DHT22;6979;52.116;5.286;2023-07-09T10:52:47;41.80;74.70
13817;DHT22;6979;52.116;5.286;2023-07-09T10:55:18;41.60;75.00
13817;DHT22;6979;52.116;5.286;2023-07-09T10:57:54;41.40;75.00
13817;DHT22;6979;52.116;5.286;2023-07-09T11:00:27;41.10;75.20
13817;DHT22;6979;52.116;5.286;2023-07-09T11:03:02;40.80;75.60
13817;DHT22;6979;52.116;5.286;2023-07-09T11:05:30;40.50;75.90
13817;DHT22;6979;52.116;5.286;2023-07-09T11:08:02;40.30;76.30
13817;DHT22;6979;52.116;5.286;2023-07-09T11:10:33;40.00;76.70
13817;DHT22;6979;52.116;5.286;2023-07-09T11:13:04;39.70;77.20
13817;DHT22;6979;52.116;5.286;2023-07-09T11:15:35;39.60;78.20
13817;DHT22;6979;52.116;5.286;2023-07-09T11:18:05;39.50;78.70
13817;DHT22;6979;52.116;5.286;2023-07-09T11:20:34;39.50;79.20
13817;DHT22;6979;52.116;5.286;2023-07-09T11:23:05;39.60;79.20
13817;DHT22;6979;52.116;5.286;2023-07-09T11:25:41;39.70;79.00
13817;DHT22;6979;52.116;5.286;2023-07-09T11:28:09;39.80;78.60
13817;DHT22;6979;52.116;5.286;2023-07-09T11:30:47;39.90;79.70
13817;DHT22;6979;52.116;5.286;2023-07-09T11:33:19;40.00;78.60
13817;DHT22;6979;52.116;5.286;2023-07-09T11:35:47;40.10;78.10
13817;DHT22;6979;52.116;5.286;2023-07-09T11:38:20;40.10;77.80
13817;DHT22;6979;52.116;5.286;2023-07-09T11:40:49;40.20;77.30
13817;DHT22;6979;52.116;5.286;2023-07-09T11:43:32;40.30;77.30
13817;DHT22;6979;52.116;5.286;2023-07-09T11:46:06;40.30;76.80
13817;DHT22;6979;52.116;5.286;2023-07-09T11:48:34;40.30;76.30
13817;DHT22;6979;52.116;5.286;2023-07-09T11:51:05;40.30;76.00
13817;DHT22;6979;52.116;5.286;2023-07-09T11:53:40;40.40;75.80
13817;DHT22;6979;52.116;5.286;2023-07-09T11:56:09;40.40;75.30
13817;DHT22;6979;52.116;5.286;2023-07-09T11:58:36;40.40;75.50
13817;DHT22;6979;52.116;5.286;2023-07-09T12:01:12;40.40;75.40
13817;DHT22;6979;52.116;5.286;2023-07-09T12:03:43;40.40;75.30
13817;DHT22;6979;52.116;5.286;2023-07-09T12:06:17;40.30;75.00
13817;DHT22;6979;52.116;5.286;2023-07-09T12:08:47;40.30;75.30
13817;DHT22;6979;52.116;5.286;2023-07-09T12:11:20;40.20;75.10
13817;DHT22;6979;52.116;5.286;2023-07-09T12:13:47;40.10;74.70
13817;DHT22;6979;52.116;5.286;2023-07-09T12:16:22;40.00;75.00
13817;DHT22;6979;52.116;5.286;2023-07-09T12:18:49;39.90;75.00
13817;DHT22;6979;52.116;5.286;2023-07-09T12:21:17;39.90;75.30
13817;DHT22;6979;52.116;5.286;2023-07-09T12:23:45;39.80;75.30
13817;DHT22;6979;52.116;5.286;2023-07-09T12:26:19;39.80;75.50
13817;DHT22;6979;52.116;5.286;2023-07-09T12:28:50;39.80;75.30
13817;DHT22;6979;52.116;5.286;2023-07-09T12:31:20;39.80;76.20
13817;DHT22;6979;52.116;5.286;2023-07-09T12:33:48;39.90;75.20
13817;DHT22;6979;52.116;5.286;2023-07-09T12:36:17;40.00;75.00
13817;DHT22;6979;52.116;5.286;2023-07-09T12:38:49;40.10;75.00
13817;DHT22;6979;52.116;5.286;2023-07-09T12:41:24;40.20;74.60
13817;DHT22;6979;52.116;5.286;2023-07-09T12:43:52;40.30;74.30
13817;DHT22;6979;52.116;5.286;2023-07-09T12:46:20;40.40;73.90
13817;DHT22;6979;52.116;5.286;2023-07-09T12:48:48;40.50;72.90
13817;DHT22;6979;52.116;5.286;2023-07-09T12:51:24;40.50;71.50
13817;DHT22;6979;52.116;5.286;2023-07-09T12:54:03;40.30;69.70
13817;DHT22;6979;52.116;5.286;2023-07-09T12:56:34;40.10;70.20
13817;DHT22;6979;52.116;5.286;2023-07-09T12:59:02;39.80;71.50
13817;DHT22;6979;52.116;5.286;2023-07-09T13:01:34;39.60;71.10
13817;DHT22;6979;52.116;5.286;2023-07-09T13:04:02;39.50;71.20
13817;DHT22;6979;52.116;5.286;2023-07-09T13:06:34;39.40;71.70
13817;DHT22;6979;52.116;5.286;2023-07-09T13:09:11;39.20;71.80
13817;DHT22;6979;52.116;5.286;2023-07-09T13:11:39;39.00;71.80
13817;DHT22;6979;52.116;5.286;2023-07-09T13:14:18;38.90;72.00
13817;DHT22;6979;52.116;5.286;2023-07-09T13:16:46;38.80;71.80
13817;DHT22;6979;52.116;5.286;2023-07-09T13:19:14;38.60;71.90
13817;DHT22;6979;52.116;5.286;2023-07-09T13:21:44;38.50;72.10
13817;DHT22;6979;52.116;5.286;2023-07-09T13:24:16;38.40;72.40
13817;DHT22;6979;52.116;5.286;2023-07-09T13:26:44;38.40;72.80
13817;DHT22;6979;52.116;5.286;2023-07-09T13:29:14;38.40;72.70
13817;DHT22;6979;52.116;5.286;2023-07-09T13:31:41;38.40;72.10
13817;DHT22;6979;52.116;5.286;2023-07-09T13:34:18;38.40;71.90
13817;DHT22;6979;52.116;5.286;2023-07-09T13:36:46;38.30;71.70
13817;DHT22;6979;52.116;5.286;2023-07-09T13:39:15;38.20;72.10
13817;DHT22;6979;52.116;5.286;2023-07-09T13:41:43;38.00;72.60
13817;DHT22;6979;52.116;5.286;2023-07-09T13:44:12;37.80;73.00
13817;DHT22;6979;52.116;5.286;2023-07-09T13:46:39;37.60;73.40
13817;DHT22;6979;52.116;5.286;2023-07-09T13:49:10;37.40;73.70
13817;DHT22;6979;52.116;5.286;2023-07-09T13:51:37;37.00;74.20
13817;DHT22;6979;52.116;5.286;2023-07-09T13:54:17;36.70;74.50
13817;DHT22;6979;52.116;5.286;2023-07-09T13:56:44;36.40;75.40
13817;DHT22;6979;52.116;5.286;2023-07-09T13:59:16;36.10;75.80
13817;DHT22;6979;52.116;5.286;2023-07-09T14:01:44;35.70;76.40
13817;DHT22;6979;52.116;5.286;2023-07-09T14:04:13;35.40;76.80
13817;DHT22;6979;52.116;5.286;2023-07-09T14:06:40;35.00;77.50
13817;DHT22;6979;52.116;5.286;2023-07-09T14:09:09;34.60;78.00
13817;DHT22;6979;52.116;5.286;2023-07-09T14:11:41;34.20;78.90
13817;DHT22;6979;52.116;5.286;2023-07-09T14:14:18;33.80;79.60
13817;DHT22;6979;52.116;5.286;2023-07-09T14:16:45;33.50;80.70
13817;DHT22;6979;52.116;5.286;2023-07-09T14:19:16;33.10;80.70
13817;DHT22;6979;52.116;5.286;2023-07-09T14:21:43;32.80;81.70
13817;DHT22;6979;52.116;5.286;2023-07-09T14:24:18;32.60;82.20
13817;DHT22;6979;52.116;5.286;2023-07-09T14:26:53;32.30;83.20
13817;DHT22;6979;52.116;5.286;2023-07-09T14:29:21;32.10;83.90
13817;DHT22;6979;52.116;5.286;2023-07-09T14:31:48;31.90;84.20
13817;DHT22;6979;52.116;5.286;2023-07-09T14:34:20;31.60;84.70
13817;DHT22;6979;52.116;5.286;2023-07-09T14:36:48;31.40;85.70
13817;DHT22;6979;52.116;5.286;2023-07-09T14:39:18;31.20;85.70
13817;DHT22;6979;52.116;5.286;2023-07-09T14:41:45;31.10;86.40
13817;DHT22;6979;52.116;5.286;2023-07-09T14:44:23;30.90;87.50
13817;DHT22;6979;52.116;5.286;2023-07-09T14:46:50;30.80;87.70
13817;DHT22;6979;52.116;5.286;2023-07-09T14:49:18;30.60;89.60
13817;DHT22;6979;52.116;5.286;2023-07-09T14:51:46;30.40;90.80
13817;DHT22;6979;52.116;5.286;2023-07-09T14:54:20;30.20;92.00
13817;DHT22;6979;52.116;5.286;2023-07-09T14:56:47;29.80;93.60
13817;DHT22;6979;52.116;5.286;2023-07-09T14:59:14;29.40;93.80
13817;DHT22;6979;52.116;5.286;2023-07-09T15:01:43;29.00;94.60
13817;DHT22;6979;52.116;5.286;2023-07-09T15:04:27;28.60;95.50
13817;DHT22;6979;52.116;5.286;2023-07-09T15:06:55;28.10;96.40
13817;DHT22;6979;52.116;5.286;2023-07-09T15:09:23;27.70;96.70
13817;DHT22;6979;52.116;5.286;2023-07-09T15:11:52;27.40;97.50
13817;DHT22;6979;52.116;5.286;2023-07-09T15:14:20;27.00;98.50
13817;DHT22;6979;52.116;5.286;2023-07-09T15:16:49;26.80;99.70
13817;DHT22;6979;52.116;5.286;2023-07-09T15:19:18;26.60;99.90
13817;DHT22;6979;52.116;5.286;2023-07-09T15:21:49;26.50;99.90
13817;DHT22;6979;52.116;5.286;2023-07-09T15:24:20;26.40;99.90
13817;DHT22;6979;52.116;5.286;2023-07-09T15:26:50;26.30;99.90
13817;DHT22;6979;52.116;5.286;2023-07-09T15:29:19;26.30;99.90
13817;DHT22;6979;52.116;5.286;2023-07-09T15:31:47;26.20;99.90
13817;DHT22;6979;52.116;5.286;2023-07-09T15:34:14;26.10;99.90
13817;DHT22;6979;52.116;5.286;2023-07-09T15:36:43;26.10;99.90
13817;DHT22;6979;52.116;5.286;2023-07-09T15:39:11;26.00;99.90
13817;DHT22;6979;52.116;5.286;2023-07-09T15:41:38;25.90;99.90
13817;DHT22;6979;52.116;5.286;2023-07-09T15:44:09;25.90;99.90
13817;DHT22;6979;52.116;5.286;2023-07-09T15:46:40;25.80;99.90
13817;DHT22;6979;52.116;5.286;2023-07-09T15:49:11;25.80;99.90
13817;DHT22;6979;52.116;5.286;2023-07-09T15:51:38;25.70;99.90
13817;DHT22;6979;52.116;5.286;2023-07-09T15:54:13;25.70;99.90
13817;DHT22;6979;52.116;5.286;2023-07-09T15:56:41;25.70;99.90
13817;DHT22;6979;52.116;5.286;2023-07-09T15:59:25;25.70;99.90